Time;durP1;ratioP1;P1;durP2;ratioP2;P2;SDS_P1;SDS_P2;PMS_P1;PMS_P2;Temp;Humidity;BMP_temperature;BMP_pressure;BME280_temperature;BME280_humidity;BME280_pressure;Samples;Min_cycle;Max_cycle;Signal;HPM_P1;HPM_P2
2022/06/29 00:00:56;;;;;;;3.58;3.38;;;20.50;99.90;;;;;;5032508;28;20215;-73
2022/06/29 00:03:21;;;;;;;5.35;3.90;;;20.40;99.90;;;;;;5031884;28;20192;-72
2022/06/29 00:05:47;;;;;;;4.45;3.30;;;20.40;99.90;;;;;;5032688;28;20212;-73
2022/06/29 00:08:14;;;;;;;3.38;3.17;;;20.40;99.90;;;;;;5024263;28;20200;-75
2022/06/29 00:10:40;;;;;;;3.30;3.10;;;20.40;99.90;;;;;;5020404;28;20185;-75
2022/06/29 00:13:07;;;;;;;3.70;3.13;;;20.40;99.90;;;;;;5031218;28;20564;-74
2022/06/29 00:15:32;;;;;;;3.65;3.30;;;20.40;99.90;;;;;;5039468;28;20181;-73
2022/06/29 00:17:58;;;;;;;5.43;3.30;;;20.30;99.90;;;;;;5022093;28;20705;-73
2022/06/29 00:20:23;;;;;;;3.88;3.42;;;20.40;99.90;;;;;;5024465;28;20242;-73
2022/06/29 00:22:49;;;;;;;3.78;3.47;;;20.40;99.90;;;;;;5026603;28;20180;-73
2022/06/29 00:25:15;;;;;;;3.90;3.60;;;20.40;99.90;;;;;;5021625;28;20208;-73
2022/06/29 00:27:42;;;;;;;5.20;4.65;;;20.40;99.90;;;;;;5029317;28;20179;-72
2022/06/29 00:30:09;;;;;;;4.45;3.72;;;20.30;99.90;;;;;;5032182;28;20192;-72
2022/06/29 00:32:34;;;;;;;4.63;4.00;;;20.30;99.90;;;;;;5032013;28;20177;-72
2022/06/29 00:35:00;;;;;;;4.13;3.80;;;20.30;99.90;;;;;;5012474;28;20224;-74
2022/06/29 00:37:27;;;;;;;5.30;4.63;;;20.30;99.90;;;;;;5012590;28;20703;-72
2022/06/29 00:39:53;;;;;;;4.72;4.10;;;20.30;99.90;;;;;;5012570;28;20180;-73
2022/06/29 00:42:18;;;;;;;4.30;3.90;;;20.30;99.90;;;;;;5012014;28;20181;-72
2022/06/29 00:44:44;;;;;;;4.13;3.92;;;20.30;99.90;;;;;;5012161;28;20205;-74
2022/06/29 00:47:09;;;;;;;4.80;4.40;;;20.20;99.90;;;;;;5012569;28;20165;-74
2022/06/29 00:49:35;;;;;;;4.55;4.22;;;20.10;99.90;;;;;;5012521;28;20259;-74
2022/06/29 00:52:03;;;;;;;4.72;4.25;;;20.10;99.90;;;;;;5011309;28;20201;-73
2022/06/29 00:54:34;;;;;;;4.38;4.07;;;20.10;99.90;;;;;;5012187;28;20686;-74
2022/06/29 00:57:05;;;;;;;4.25;3.95;;;20.10;99.90;;;;;;5012272;28;20181;-73
2022/06/29 00:59:34;;;;;;;5.25;4.47;;;20.00;99.90;;;;;;5012226;28;20724;-73
2022/06/29 01:02:01;;;;;;;5.30;4.90;;;20.10;99.90;;;;;;5011557;28;20197;-72
2022/06/29 01:04:27;;;;;;;5.47;4.97;;;20.00;99.90;;;;;;5012049;28;20271;-73
2022/06/29 01:06:52;;;;;;;5.35;4.95;;;20.10;99.90;;;;;;5012177;28;20165;-73
2022/06/29 01:09:18;;;;;;;5.13;4.72;;;20.10;99.90;;;;;;5022163;28;20177;-73
2022/06/29 01:11:44;;;;;;;4.43;4.22;;;20.10;99.90;;;;;;5015884;28;20212;-73
2022/06/29 01:14:15;;;;;;;4.97;4.68;;;20.00;99.90;;;;;;5011881;28;20243;-73
2022/06/29 01:16:40;;;;;;;5.68;5.25;;;20.10;99.90;;;;;;5012000;28;20158;-73
2022/06/29 01:19:06;;;;;;;6.30;5.80;;;20.10;99.90;;;;;;5032400;28;20195;-73
2022/06/29 01:21:35;;;;;;;5.30;4.82;;;20.00;99.90;;;;;;5043353;28;20230;-73
2022/06/29 01:24:01;;;;;;;6.38;5.88;;;19.90;99.90;;;;;;5041323;28;20227;-73
2022/06/29 01:26:27;;;;;;;5.97;5.53;;;19.80;99.90;;;;;;5043444;28;20172;-73
2022/06/29 01:28:53;;;;;;;6.15;5.75;;;19.60;99.90;;;;;;5016698;28;20235;-73
2022/06/29 01:31:19;;;;;;;7.18;6.57;;;19.50;99.90;;;;;;5038398;28;20678;-74
2022/06/29 01:33:46;;;;;;;7.55;6.90;;;19.40;99.90;;;;;;5049498;28;20305;-74
2022/06/29 01:36:13;;;;;;;7.78;7.18;;;19.30;99.90;;;;;;5045608;28;20256;-74
2022/06/29 01:38:40;;;;;;;7.93;7.32;;;19.20;99.90;;;;;;5046324;28;20333;-74
2022/06/29 01:41:08;;;;;;;7.50;7.00;;;19.10;99.90;;;;;;5051687;28;20168;-73
2022/06/29 01:43:34;;;;;;;8.48;7.78;;;19.10;99.90;;;;;;5051280;28;20180;-74
2022/06/29 01:46:00;;;;;;;8.73;8.02;;;19.00;99.90;;;;;;5046532;28;20315;-74
2022/06/29 01:48:26;;;;;;;9.10;7.93;;;19.00;99.90;;;;;;5031884;28;20256;-74
2022/06/29 01:50:52;;;;;;;8.98;8.23;;;18.90;99.90;;;;;;5031722;28;20181;-79
2022/06/29 01:53:17;;;;;;;9.30;8.60;;;18.90;99.90;;;;;;5031491;28;20263;-74
2022/06/29 01:55:44;;;;;;;8.65;8.00;;;18.90;99.90;;;;;;5024588;28;20185;-74
2022/06/29 01:58:10;;;;;;;8.02;7.43;;;18.90;99.90;;;;;;5011771;28;20224;-73
2022/06/29 02:00:36;;;;;;;9.00;8.15;;;18.80;99.90;;;;;;5011970;28;20181;-73
2022/06/29 02:03:02;;;;;;;9.05;8.35;;;18.90;99.90;;;;;;5014115;28;20174;-73
2022/06/29 02:05:27;;;;;;;9.05;8.25;;;18.90;99.90;;;;;;5033417;28;20631;-74
2022/06/29 02:07:53;;;;;;;8.18;7.55;;;18.90;99.90;;;;;;5035291;28;20612;-74
2022/06/29 02:10:18;;;;;;;8.25;7.75;;;19.00;99.90;;;;;;5035297;28;20706;-74
2022/06/29 02:12:44;;;;;;;8.25;7.65;;;18.90;99.90;;;;;;5024179;28;20189;-73
2022/06/29 02:15:10;;;;;;;8.73;8.02;;;18.90;99.90;;;;;;5015518;28;20230;-74
2022/06/29 02:17:36;;;;;;;8.80;8.10;;;18.80;99.90;;;;;;5015443;28;20174;-74
2022/06/29 02:20:03;;;;;;;8.88;8.13;;;18.80;99.90;;;;;;5015433;28;20647;-73
2022/06/29 02:22:28;;;;;;;8.57;7.85;;;18.70;99.90;;;;;;5027900;28;20267;-72
2022/06/29 02:24:54;;;;;;;8.77;7.95;;;18.70;99.90;;;;;;5045121;28;20290;-73
2022/06/29 02:27:20;;;;;;;10.18;8.90;;;18.60;99.90;;;;;;5054690;28;20172;-73
2022/06/29 02:29:46;;;;;;;8.82;8.13;;;18.60;99.90;;;;;;5054627;28;20183;-73
2022/06/29 02:34:55;;;;;;;8.98;8.27;;;18.50;99.90;;;;;;5015168;28;20335;-73
2022/06/29 02:37:21;;;;;;;9.82;8.57;;;18.40;99.90;;;;;;5015200;28;20228;-74
2022/06/29 02:39:47;;;;;;;9.35;8.55;;;18.40;99.90;;;;;;5014603;28;20631;-74
2022/06/29 02:42:13;;;;;;;9.32;8.50;;;18.40;99.90;;;;;;5036945;28;20191;-75
2022/06/29 02:44:40;;;;;;;11.23;7.90;;;18.30;99.90;;;;;;5049162;28;20690;-73
2022/06/29 02:47:07;;;;;;;8.88;8.18;;;18.30;99.90;;;;;;5032101;28;20226;-74
2022/06/29 02:49:33;;;;;;;8.70;7.85;;;18.20;99.90;;;;;;5047346;28;20178;-74
2022/06/29 02:51:58;;;;;;;9.35;8.50;;;18.20;99.90;;;;;;5054133;28;20251;-74
2022/06/29 02:54:25;;;;;;;8.75;8.05;;;18.20;99.90;;;;;;5054280;28;20638;-75
2022/06/29 02:56:51;;;;;;;7.90;7.30;;;18.20;99.90;;;;;;5048749;28;20199;-74
2022/06/29 02:59:16;;;;;;;8.93;8.23;;;18.20;99.90;;;;;;5014710;28;20197;-74
2022/06/29 03:01:42;;;;;;;8.40;7.70;;;18.20;99.90;;;;;;5014611;28;20243;-74
2022/06/29 03:04:08;;;;;;;8.13;7.35;;;18.20;99.90;;;;;;5012667;28;20204;-74
2022/06/29 03:06:34;;;;;;;7.15;6.55;;;18.20;99.90;;;;;;5014516;28;20613;-74
2022/06/29 03:08:59;;;;;;;8.00;7.30;;;18.20;99.90;;;;;;5014591;28;20177;-73
2022/06/29 03:11:25;;;;;;;7.70;6.93;;;18.10;99.90;;;;;;5014365;28;20170;-74
2022/06/29 03:13:51;;;;;;;8.48;7.50;;;18.10;99.90;;;;;;5011838;28;20672;-74
2022/06/29 03:16:17;;;;;;;7.45;6.68;;;18.10;99.90;;;;;;5014615;28;20208;-74
2022/06/29 03:18:43;;;;;;;7.97;7.35;;;18.10;99.90;;;;;;5014381;28;20180;-74
2022/06/29 03:21:09;;;;;;;8.27;7.57;;;18.10;99.90;;;;;;5014333;28;20177;-74
2022/06/29 03:23:35;;;;;;;7.43;6.78;;;18.10;99.90;;;;;;5018643;28;20259;-73
2022/06/29 03:26:00;;;;;;;7.28;6.68;;;18.10;99.90;;;;;;5025576;28;20606;-72
2022/06/29 03:28:26;;;;;;;7.07;6.47;;;18.20;99.90;;;;;;5014408;28;20193;-72
2022/06/29 03:30:51;;;;;;;7.70;7.00;;;18.20;99.90;;;;;;5013975;28;20554;-73
2022/06/29 03:33:17;;;;;;;7.15;6.70;;;18.20;99.90;;;;;;5013607;28;20190;-73
2022/06/29 03:35:43;;;;;;;7.30;6.70;;;18.20;99.90;;;;;;5014766;28;20185;-77
2022/06/29 03:38:08;;;;;;;7.55;6.95;;;18.20;99.90;;;;;;5014662;28;20169;-74
2022/06/29 03:40:34;;;;;;;7.50;6.88;;;18.20;99.90;;;;;;5014514;28;20215;-75
2022/06/29 03:43:00;;;;;;;7.93;7.32;;;18.20;99.90;;;;;;5014147;28;20579;-75
2022/06/29 03:45:25;;;;;;;7.13;6.43;;;18.20;99.90;;;;;;5014162;28;20240;-75
2022/06/29 03:47:51;;;;;;;7.15;6.28;;;18.30;99.90;;;;;;5017980;28;20607;-75
2022/06/29 03:50:16;;;;;;;6.78;6.18;;;18.30;99.90;;;;;;5034237;28;20173;-74
2022/06/29 03:52:42;;;;;;;7.05;6.45;;;18.40;99.90;;;;;;5034074;28;20184;-75
2022/06/29 03:55:08;;;;;;;6.80;6.30;;;18.40;99.90;;;;;;5033986;28;20188;-74
2022/06/29 03:57:34;;;;;;;7.05;6.35;;;18.40;99.90;;;;;;5023599;28;20231;-73
2022/06/29 04:00:00;;;;;;;6.63;5.88;;;18.50;99.90;;;;;;5013614;28;20177;-73
2022/06/29 04:02:26;;;;;;;6.30;5.90;;;18.60;99.90;;;;;;5013646;28;20627;-73
2022/06/29 04:04:52;;;;;;;7.07;6.45;;;18.70;99.90;;;;;;5013635;28;20208;-74
2022/06/29 04:07:18;;;;;;;6.32;5.82;;;18.80;99.90;;;;;;5013689;28;20177;-73
2022/06/29 04:09:44;;;;;;;6.28;5.78;;;18.90;99.90;;;;;;5013352;28;20181;-73
2022/06/29 04:12:09;;;;;;;6.00;5.40;;;18.90;99.90;;;;;;5013027;28;20248;-73
2022/06/29 04:14:35;;;;;;;6.30;5.50;;;19.00;99.90;;;;;;5012003;28;20193;-73
2022/06/29 04:17:01;;;;;;;5.85;5.35;;;19.10;99.90;;;;;;5012803;28;20189;-74
2022/06/29 04:19:26;;;;;;;5.30;4.90;;;19.20;99.90;;;;;;5013090;28;20189;-73
2022/06/29 04:21:54;;;;;;;6.07;5.32;;;19.30;99.90;;;;;;5012855;28;20201;-74
2022/06/29 04:24:20;;;;;;;5.63;5.13;;;19.40;99.90;;;;;;5012798;28;20255;-73
2022/06/29 04:26:46;;;;;;;6.78;5.22;;;19.50;99.90;;;;;;5011916;28;20546;-73
2022/06/29 04:29:12;;;;;;;6.50;5.65;;;19.50;99.90;;;;;;5012929;28;20196;-74
2022/06/29 04:31:38;;;;;;;5.25;4.80;;;19.60;99.90;;;;;;5012678;28;20231;-74
2022/06/29 04:34:04;;;;;;;8.40;5.68;;;19.60;99.90;;;;;;5012792;28;20204;-73
2022/06/29 04:36:30;;;;;;;5.70;4.90;;;19.70;99.90;;;;;;5012876;28;20542;-73
2022/06/29 04:38:56;;;;;;;8.15;5.38;;;19.70;99.90;;;;;;5013548;28;20664;-72
2022/06/29 04:41:22;;;;;;;5.80;4.82;;;19.70;99.90;;;;;;5023956;28;20182;-73
2022/06/29 04:43:48;;;;;;;5.30;4.90;;;19.80;99.90;;;;;;5024576;28;20299;-72
2022/06/29 04:46:20;;;;;;;6.32;5.82;;;19.80;99.90;;;;;;5021723;28;20180;-72
2022/06/29 04:48:47;;;;;;;5.18;4.85;;;19.90;99.90;;;;;;5021037;28;20735;-72
2022/06/29 04:51:13;;;;;;;5.35;4.90;;;20.00;99.90;;;;;;5023860;28;20173;-72
2022/06/29 04:53:38;;;;;;;5.28;4.65;;;20.00;99.90;;;;;;5018802;28;20698;-73
2022/06/29 04:56:04;;;;;;;5.03;4.68;;;20.10;99.90;;;;;;5025699;28;20187;-72
2022/06/29 04:58:30;;;;;;;4.68;4.32;;;20.10;99.90;;;;;;5023094;28;20169;-72
2022/06/29 05:00:55;;;;;;;5.22;4.93;;;20.20;99.90;;;;;;5018072;28;20219;-73
2022/06/29 05:03:21;;;;;;;4.93;4.53;;;20.20;99.90;;;;;;5023034;28;20275;-72
2022/06/29 05:05:47;;;;;;;5.68;5.07;;;20.30;99.90;;;;;;5020381;28;20247;-72
2022/06/29 05:08:14;;;;;;;5.68;4.88;;;20.20;99.90;;;;;;5023713;28;20251;-72
2022/06/29 05:10:43;;;;;;;5.15;4.55;;;20.20;99.90;;;;;;5023171;28;20175;-72
2022/06/29 05:13:10;;;;;;;5.43;4.90;;;20.20;99.90;;;;;;5024791;28;20284;-72
2022/06/29 05:15:37;;;;;;;5.13;4.72;;;20.30;99.90;;;;;;5021867;28;20189;-72
2022/06/29 05:18:02;;;;;;;7.30;4.80;;;20.20;99.90;;;;;;5024330;28;20268;-73
2022/06/29 05:20:28;;;;;;;5.32;4.82;;;20.20;99.90;;;;;;5023276;28;20248;-73
2022/06/29 05:22:54;;;;;;;4.97;4.57;;;20.20;99.90;;;;;;5029736;28;20192;-72
2022/06/29 05:25:20;;;;;;;6.53;4.38;;;20.20;99.90;;;;;;5020897;28;20201;-72
2022/06/29 05:27:46;;;;;;;4.88;4.47;;;20.20;99.90;;;;;;5018058;28;20174;-72
2022/06/29 05:30:12;;;;;;;6.53;4.13;;;20.20;99.90;;;;;;5023045;28;20619;-72
2022/06/29 05:32:38;;;;;;;4.65;4.22;;;20.20;99.90;;;;;;5024742;28;20181;-71
2022/06/29 05:35:04;;;;;;;5.22;4.53;;;20.20;99.90;;;;;;5022512;28;20279;-72
2022/06/29 05:37:30;;;;;;;5.15;4.85;;;20.30;99.90;;;;;;5021121;28;20655;-72
2022/06/29 05:39:56;;;;;;;4.63;4.32;;;20.30;99.90;;;;;;5025678;28;20219;-72
2022/06/29 05:42:22;;;;;;;5.00;4.70;;;20.20;99.90;;;;;;5025609;28;20275;-72
2022/06/29 05:44:47;;;;;;;4.68;4.38;;;20.20;99.90;;;;;;5034565;28;20212;-73
2022/06/29 05:47:14;;;;;;;4.90;4.53;;;20.10;99.90;;;;;;5047209;28;20218;-72
2022/06/29 05:49:40;;;;;;;4.93;4.63;;;20.20;99.90;;;;;;5031651;28;20224;-73
2022/06/29 05:52:06;;;;;;;4.60;4.20;;;20.30;99.90;;;;;;5055296;28;20604;-73
2022/06/29 05:54:32;;;;;;;5.40;4.43;;;20.30;99.90;;;;;;5024101;28;20283;-73
2022/06/29 05:56:57;;;;;;;5.43;4.90;;;20.30;99.90;;;;;;5043494;28;20632;-73
2022/06/29 05:59:23;;;;;;;5.82;5.15;;;20.20;99.90;;;;;;5035217;28;20185;-73
2022/06/29 06:01:49;;;;;;;5.55;4.68;;;20.30;99.90;;;;;;5033776;28;20738;-73
2022/06/29 06:04:14;;;;;;;5.65;5.10;;;20.20;99.90;;;;;;5035141;28;20207;-73
2022/06/29 06:06:40;;;;;;;5.55;4.85;;;20.20;99.90;;;;;;5035073;28;20180;-73
2022/06/29 06:09:05;;;;;;;7.35;5.70;;;20.20;99.90;;;;;;5033675;28;20583;-75
2022/06/29 06:11:31;;;;;;;6.07;5.47;;;20.30;99.90;;;;;;5027820;28;20192;-75
2022/06/29 06:13:57;;;;;;;5.78;5.22;;;20.30;99.90;;;;;;5042907;28;20236;-74
2022/06/29 06:16:22;;;;;;;7.38;4.97;;;20.40;99.90;;;;;;5054864;28;20172;-75
2022/06/29 06:18:48;;;;;;;5.78;5.38;;;20.40;99.90;;;;;;5049174;28;20189;-75
2022/06/29 06:21:15;;;;;;;5.35;4.93;;;20.50;99.90;;;;;;5039143;28;20183;-75
2022/06/29 06:23:40;;;;;;;7.47;5.63;;;20.60;99.90;;;;;;5045052;28;20220;-75
2022/06/29 06:26:06;;;;;;;5.28;4.85;;;20.70;99.90;;;;;;5046641;28;20188;-76
2022/06/29 06:28:32;;;;;;;5.65;5.25;;;20.80;99.90;;;;;;5041985;28;20180;-81
2022/06/29 06:30:57;;;;;;;5.18;4.68;;;20.90;99.90;;;;;;5034699;28;20189;-76
2022/06/29 06:33:23;;;;;;;8.32;6.28;;;21.00;99.90;;;;;;5029234;28;20280;-75
2022/06/29 06:35:49;;;;;;;6.28;5.70;;;21.10;99.90;;;;;;5043327;28;20185;-75
2022/06/29 06:38:15;;;;;;;5.13;4.63;;;21.20;99.90;;;;;;5041411;28;20215;-75
2022/06/29 06:43:26;;;;;;;5.65;5.22;;;21.30;99.90;;;;;;5029605;28;20316;-76
2022/06/29 06:45:51;;;;;;;4.72;4.32;;;21.50;99.90;;;;;;5027540;28;20227;-76
2022/06/29 06:48:17;;;;;;;5.28;4.78;;;21.60;99.90;;;;;;5042053;28;20181;-76
2022/06/29 06:50:43;;;;;;;5.78;5.28;;;21.70;99.90;;;;;;5026880;28;20173;-76
2022/06/29 06:53:08;;;;;;;7.10;5.15;;;21.70;99.90;;;;;;5035820;28;20281;-76
2022/06/29 06:55:34;;;;;;;6.38;5.10;;;21.70;99.90;;;;;;5040765;28;20184;-75
2022/06/29 06:58:01;;;;;;;5.85;5.35;;;21.80;99.90;;;;;;5043940;28;20169;-75
2022/06/29 07:00:28;;;;;;;4.70;4.30;;;21.80;99.90;;;;;;5030798;28;20660;-76
2022/06/29 07:02:53;;;;;;;5.18;4.68;;;21.90;99.90;;;;;;5013574;28;20177;-77
2022/06/29 07:05:19;;;;;;;5.18;4.80;;;22.10;99.90;;;;;;5037345;28;20616;-76
2022/06/29 07:07:45;;;;;;;5.05;4.55;;;22.30;99.90;;;;;;5051688;28;20168;-77
2022/06/29 07:10:11;;;;;;;5.35;4.78;;;22.50;99.90;;;;;;5038255;28;20173;-76
2022/06/29 07:12:38;;;;;;;5.05;4.57;;;22.50;99.90;;;;;;5022552;28;20254;-76
2022/06/29 07:15:05;;;;;;;4.82;4.28;;;22.70;99.90;;;;;;5038178;28;20205;-76
2022/06/29 07:17:30;;;;;;;4.72;4.22;;;22.90;99.90;;;;;;5030515;28;20259;-75
2022/06/29 07:19:56;;;;;;;4.47;4.07;;;23.00;99.90;;;;;;5034309;28;20268;-76
2022/06/29 07:22:21;;;;;;;5.18;4.43;;;23.10;99.90;;;;;;5021401;28;20181;-76
2022/06/29 07:24:47;;;;;;;5.80;3.92;;;23.10;99.90;;;;;;5041346;28;20219;-74
2022/06/29 07:27:13;;;;;;;6.10;3.97;;;23.20;99.90;;;;;;5034443;28;20177;-74
2022/06/29 07:29:39;;;;;;;4.22;3.85;;;23.30;99.90;;;;;;5038581;28;20175;-73
2022/06/29 07:32:05;;;;;;;4.68;4.20;;;23.30;99.90;;;;;;5013142;28;20189;-74
2022/06/29 07:34:31;;;;;;;5.25;4.20;;;23.30;99.90;;;;;;5013154;28;20189;-73
2022/06/29 07:36:56;;;;;;;4.80;4.15;;;23.30;99.90;;;;;;5013425;28;20177;-73
2022/06/29 07:39:22;;;;;;;4.65;3.85;;;23.10;99.90;;;;;;5019593;28;20651;-73
2022/06/29 07:41:48;;;;;;;4.95;4.45;;;23.00;99.90;;;;;;5032681;28;20183;-73
2022/06/29 07:44:13;;;;;;;5.30;3.92;;;22.80;99.90;;;;;;5031541;28;20248;-74
2022/06/29 07:46:39;;;;;;;5.82;4.68;;;22.60;99.90;;;;;;5013207;28;20177;-72
2022/06/29 07:49:05;;;;;;;4.95;4.55;;;22.50;99.90;;;;;;5013141;28;20236;-72
2022/06/29 07:51:30;;;;;;;10.75;4.60;;;22.40;99.90;;;;;;5013204;28;20232;-75
2022/06/29 07:53:56;;;;;;;5.65;4.68;;;22.30;99.90;;;;;;5021930;28;20265;-75
2022/06/29 07:56:21;;;;;;;6.25;4.65;;;22.50;99.90;;;;;;5025273;28;20546;-73
2022/06/29 07:58:47;;;;;;;6.60;5.10;;;22.70;99.90;;;;;;5024253;28;20238;-73
2022/06/29 08:01:13;;;;;;;5.13;4.72;;;22.60;99.90;;;;;;5021282;28;20178;-74
2022/06/29 08:03:38;;;;;;;5.43;5.03;;;22.60;99.90;;;;;;5021252;28;20238;-74
2022/06/29 08:06:07;;;;;;;6.03;5.40;;;22.50;99.90;;;;;;5021015;28;20773;-74
2022/06/29 08:08:33;;;;;;;5.88;5.18;;;22.50;99.90;;;;;;5020625;28;20223;-74
2022/06/29 08:10:58;;;;;;;4.93;4.63;;;22.40;99.90;;;;;;5023518;28;20176;-73
2022/06/29 08:13:24;;;;;;;5.95;5.18;;;22.50;99.90;;;;;;5029018;28;20208;-74
2022/06/29 08:15:49;;;;;;;5.45;5.05;;;22.80;99.90;;;;;;5042768;28;20188;-72
2022/06/29 08:18:16;;;;;;;7.32;4.63;;;23.40;99.90;;;;;;5041594;28;20188;-74
2022/06/29 08:20:43;;;;;;;4.88;4.47;;;24.20;99.90;;;;;;5024008;28;20186;-71
2022/06/29 08:23:09;;;;;;;5.45;4.63;;;24.80;99.90;;;;;;5046254;28;20200;-72
2022/06/29 08:25:35;;;;;;;6.95;4.53;;;25.20;99.90;;;;;;5016632;28;20544;-73
2022/06/29 08:28:01;;;;;;;4.63;4.18;;;25.70;99.90;;;;;;5020153;28;20220;-71
2022/06/29 08:30:27;;;;;;;5.53;5.03;;;26.20;99.90;;;;;;5012374;28;20231;-71
2022/06/29 08:32:53;;;;;;;4.80;4.35;;;26.80;99.90;;;;;;5012501;28;20181;-70
2022/06/29 08:35:19;;;;;;;6.75;4.82;;;27.10;99.90;;;;;;5012388;28;20180;-71
2022/06/29 08:37:46;;;;;;;4.40;4.00;;;27.30;99.90;;;;;;5012196;28;20216;-71
2022/06/29 08:40:15;;;;;;;5.03;4.60;;;27.40;99.90;;;;;;5021603;28;20222;-70
2022/06/29 08:42:41;;;;;;;4.95;4.55;;;27.50;99.90;;;;;;5042258;28;20179;-72
2022/06/29 08:45:08;;;;;;;6.22;4.75;;;27.60;99.90;;;;;;5037597;28;20755;-72
2022/06/29 08:47:35;;;;;;;5.63;4.88;;;27.60;99.90;;;;;;5022241;28;20183;-71
2022/06/29 08:50:05;;;;;;;5.18;4.78;;;27.80;99.90;;;;;;5031859;28;20570;-72
2022/06/29 08:52:31;;;;;;;5.20;4.22;;;28.00;99.90;;;;;;5031691;28;20532;-70
2022/06/29 08:54:58;;;;;;;5.70;4.22;;;28.00;99.90;;;;;;5030438;28;20258;-71
2022/06/29 08:57:25;;;;;;;4.38;4.07;;;28.20;99.90;;;;;;5031759;28;20609;-71
2022/06/29 08:59:53;;;;;;;4.65;4.25;;;28.20;99.90;;;;;;5025628;28;20185;-70
2022/06/29 09:02:19;;;;;;;4.57;4.00;;;28.40;99.90;;;;;;5019761;28;20177;-72
2022/06/29 09:04:44;;;;;;;4.50;4.05;;;28.70;99.90;;;;;;5029627;28;20722;-74
2022/06/29 09:07:10;;;;;;;4.85;4.35;;;29.00;99.90;;;;;;5031609;28;20711;-73
2022/06/29 09:09:58;;;;;;;3.78;3.47;;;29.20;99.90;;;;;;5031612;28;20179;-74
2022/06/29 09:12:25;;;;;;;4.95;4.25;;;29.80;99.90;;;;;;5020278;28;20189;-74
2022/06/29 09:14:50;;;;;;;4.80;4.30;;;30.10;99.90;;;;;;5030095;28;20216;-74
2022/06/29 09:17:17;;;;;;;4.13;3.83;;;30.40;99.90;;;;;;5030417;28;20249;-74
2022/06/29 09:19:44;;;;;;;4.50;4.03;;;30.70;99.90;;;;;;5023375;28;20207;-75
2022/06/29 09:22:10;;;;;;;5.07;3.97;;;31.10;99.90;;;;;;5019027;28;20220;-72
2022/06/29 09:24:35;;;;;;;4.97;4.18;;;30.90;99.90;;;;;;5031865;28;20231;-72
2022/06/29 09:27:06;;;;;;;3.92;3.63;;;31.30;99.90;;;;;;5038155;28;20546;-72
2022/06/29 09:29:41;;;;;;;4.78;4.30;;;31.20;99.90;;;;;;5035785;28;20177;-72
2022/06/29 09:32:14;;;;;;;4.35;3.95;;;31.40;99.90;;;;;;5020754;28;20164;-72
2022/06/29 09:34:41;;;;;;;4.97;3.25;;;31.40;99.90;;;;;;5030968;28;20192;-74
2022/06/29 09:37:09;;;;;;;3.92;3.63;;;31.90;99.80;;;;;;5031387;28;20175;-72
2022/06/29 09:39:37;;;;;;;3.63;3.30;;;32.40;97.80;;;;;;5024878;28;20612;-73
2022/06/29 09:42:05;;;;;;;4.20;3.63;;;32.60;96.40;;;;;;5011353;28;20564;-73
2022/06/29 09:44:31;;;;;;;3.97;3.58;;;32.70;95.00;;;;;;5011536;28;20205;-72
2022/06/29 09:46:57;;;;;;;4.25;3.95;;;32.30;94.80;;;;;;5019003;28;20629;-72
2022/06/29 09:49:28;;;;;;;3.60;3.28;;;31.90;95.20;;;;;;5024066;28;20546;-72
2022/06/29 09:51:58;;;;;;;3.33;3.03;;;32.10;95.30;;;;;;5030144;28;20171;-73
2022/06/29 09:54:36;;;;;;;4.43;4.03;;;32.40;94.50;;;;;;5020404;28;20204;-70
2022/06/29 09:57:02;;;;;;;4.18;3.78;;;32.10;94.50;;;;;;5011428;28;20271;-70
2022/06/29 10:05:07;;;;;;;4.55;3.65;;;31.60;95.50;;;;;;5010393;28;20247;-70
2022/06/29 10:07:38;;;;;;;5.20;3.30;;;31.50;95.40;;;;;;5012535;28;20181;-71
2022/06/29 10:10:07;;;;;;;3.83;3.40;;;31.60;95.00;;;;;;5011353;28;20207;-71
2022/06/29 10:15:55;;;;;;;4.05;3.33;;;31.80;93.80;;;;;;5011402;28;20191;-72
2022/06/29 10:18:23;;;;;;;3.67;3.40;;;31.80;93.80;;;;;;5011376;28;20535;-69
2022/06/29 10:20:51;;;;;;;4.00;3.00;;;31.80;92.70;;;;;;5011135;28;20165;-69
2022/06/29 10:23:42;;;;;;;3.63;3.38;;;32.30;92.20;;;;;;5012280;28;20199;-69
2022/06/29 10:26:30;;;;;;;3.63;3.33;;;32.80;91.10;;;;;;5014766;28;20258;-69
2022/06/29 10:29:16;;;;;;;6.20;3.72;;;33.00;90.70;;;;;;5014675;28;20695;-70
2022/06/29 10:34:32;;;;;;;3.42;3.05;;;32.70;90.60;;;;;;5014406;28;20204;-70
2022/06/29 10:37:07;;;;;;;3.53;2.90;;;32.60;90.10;;;;;;5014009;28;20183;-68
2022/06/29 10:39:45;;;;;;;3.55;3.25;;;32.90;89.60;;;;;;5017061;28;20200;-68
2022/06/29 10:45:33;;;;;;;4.03;3.53;;;32.70;87.90;;;;;;5010464;28;20220;-71
2022/06/29 10:48:01;;;;;;;6.65;3.67;;;31.60;90.90;;;;;;5019672;28;20724;-71
2022/06/29 10:50:28;;;;;;;4.57;3.17;;;30.70;92.40;;;;;;5013602;28;20184;-71
2022/06/29 10:52:56;;;;;;;3.72;3.47;;;29.90;94.30;;;;;;5014723;28;20615;-71
2022/06/29 10:55:24;;;;;;;3.50;3.20;;;29.50;95.40;;;;;;5025658;28;20276;-71
2022/06/29 10:57:52;;;;;;;3.15;2.85;;;29.30;96.70;;;;;;5033157;28;20187;-71
2022/06/29 11:00:23;;;;;;;3.35;3.08;;;29.60;95.70;;;;;;5023973;28;20180;-71
2022/06/29 11:02:48;;;;;;;3.53;3.22;;;29.30;96.30;;;;;;5023142;28;20188;-71
2022/06/29 11:05:14;;;;;;;3.70;3.40;;;29.00;96.90;;;;;;5022869;28;20247;-71
2022/06/29 11:13:05;;;;;;;3.38;3.10;;;30.50;94.00;;;;;;5021833;28;20193;-71
2022/06/29 11:15:47;;;;;;;3.58;2.88;;;31.40;93.10;;;;;;5022594;28;20175;-69
2022/06/29 11:18:14;;;;;;;3.42;3.10;;;32.60;91.50;;;;;;5027044;28;20172;-68
2022/06/29 11:20:41;;;;;;;3.72;3.13;;;33.80;87.30;;;;;;5023701;28;20181;-69
2022/06/29 11:23:10;;;;;;;3.25;2.90;;;35.40;83.50;;;;;;5027825;28;20180;-69
2022/06/29 11:25:38;;;;;;;3.28;3.00;;;35.90;77.80;;;;;;5013473;28;20208;-69
2022/06/29 11:28:04;;;;;;;3.55;3.00;;;36.70;75.00;;;;;;5031604;28;20184;-68
2022/06/29 11:30:30;;;;;;;2.83;2.60;;;37.80;72.30;;;;;;5032275;28;20203;-68
2022/06/29 11:32:56;;;;;;;3.17;2.70;;;38.00;67.80;;;;;;5030037;28;20172;-70
2022/06/29 11:35:25;;;;;;;2.88;2.55;;;38.50;65.50;;;;;;5011395;28;20189;-70
2022/06/29 11:37:52;;;;;;;3.90;2.70;;;38.10;66.80;;;;;;5027470;28;20294;-70
2022/06/29 11:40:41;;;;;;;5.07;2.85;;;37.30;67.20;;;;;;5031398;28;20249;-70
2022/06/29 11:43:15;;;;;;;3.08;2.78;;;36.80;68.00;;;;;;5032337;28;20176;-70
2022/06/29 11:45:49;;;;;;;4.50;2.65;;;36.60;68.20;;;;;;5017935;28;20572;-71
2022/06/29 11:48:15;;;;;;;2.75;2.60;;;37.20;65.70;;;;;;5013096;28;20300;-70
2022/06/29 11:50:47;;;;;;;3.00;2.72;;;37.10;64.30;;;;;;5012724;28;20794;-70
2022/06/29 11:53:16;;;;;;;3.70;2.78;;;36.50;66.40;;;;;;5017483;28;20200;-69
2022/06/29 11:55:46;;;;;;;3.95;2.90;;;35.50;69.60;;;;;;5022990;28;20193;-68
2022/06/29 11:58:15;;;;;;;5.13;3.20;;;33.90;72.70;;;;;;5041695;28;20184;-69
2022/06/29 12:00:43;;;;;;;3.80;3.05;;;33.00;77.00;;;;;;5030736;28;20176;-68
2022/06/29 12:03:12;;;;;;;2.90;2.70;;;32.30;78.40;;;;;;5020100;28;20196;-69
2022/06/29 12:05:54;;;;;;;3.35;3.05;;;31.80;81.20;;;;;;5037514;28;20245;-69
2022/06/29 12:08:20;;;;;;;3.35;3.10;;;31.50;82.70;;;;;;5031379;28;20175;-70
2022/06/29 12:10:45;;;;;;;5.63;3.70;;;30.90;84.10;;;;;;5030779;28;20549;-69
2022/06/29 12:13:11;;;;;;;3.22;2.70;;;30.40;86.20;;;;;;5024610;28;20196;-69
2022/06/29 12:15:37;;;;;;;3.85;2.95;;;30.00;90.30;;;;;;5039599;28;20698;-69
2022/06/29 12:18:03;;;;;;;4.25;3.33;;;29.30;91.70;;;;;;5043246;28;20175;-71
2022/06/29 12:20:28;;;;;;;6.32;3.97;;;29.10;93.00;;;;;;5042717;28;20188;-69
2022/06/29 12:22:54;;;;;;;4.50;3.70;;;28.70;94.70;;;;;;5042820;28;20185;-70
2022/06/29 12:25:22;;;;;;;5.18;3.78;;;28.50;95.40;;;;;;5051825;28;20683;-68
2022/06/29 12:27:48;;;;;;;3.92;3.13;;;28.30;96.20;;;;;;5023078;28;20212;-68
2022/06/29 12:30:14;;;;;;;3.72;3.20;;;28.30;97.60;;;;;;5041957;28;20188;-68
2022/06/29 12:32:39;;;;;;;4.38;3.88;;;28.30;97.80;;;;;;5050938;28;20167;-68
2022/06/29 12:35:06;;;;;;;5.97;3.30;;;28.30;97.70;;;;;;5050894;28;20195;-68
2022/06/29 12:37:31;;;;;;;6.43;3.70;;;28.20;97.80;;;;;;5025885;28;20187;-68
2022/06/29 12:39:57;;;;;;;5.70;3.38;;;28.20;98.40;;;;;;5022061;28;20191;-67
2022/06/29 12:42:23;;;;;;;6.50;3.92;;;28.20;99.00;;;;;;5021632;28;20214;-68
2022/06/29 12:44:49;;;;;;;5.32;3.28;;;28.10;98.80;;;;;;5025315;28;20212;-68
2022/06/29 12:47:15;;;;;;;7.20;3.88;;;28.30;99.30;;;;;;5022809;28;20185;-68
2022/06/29 12:49:41;;;;;;;3.38;3.03;;;28.60;99.10;;;;;;5019987;28;20177;-68
2022/06/29 12:52:06;;;;;;;6.95;3.20;;;29.10;98.30;;;;;;5028050;28;20634;-68
2022/06/29 12:54:32;;;;;;;3.50;3.20;;;29.80;97.10;;;;;;5023443;28;20721;-68
2022/06/29 12:56:58;;;;;;;7.57;3.20;;;30.70;96.00;;;;;;5026170;28;20183;-68
2022/06/29 12:59:24;;;;;;;3.50;3.20;;;31.30;94.20;;;;;;5024271;28;20172;-68
2022/06/29 13:01:51;;;;;;;3.95;3.00;;;31.90;92.50;;;;;;5019380;28;20232;-69
2022/06/29 13:04:17;;;;;;;5.43;3.40;;;31.60;91.50;;;;;;5028239;28;20755;-68
2022/06/29 13:06:43;;;;;;;6.40;3.72;;;32.00;92.00;;;;;;5027677;28;20219;-72
2022/06/29 13:09:08;;;;;;;5.13;3.00;;;31.70;91.10;;;;;;5028882;28;20172;-70